Time;durP1;ratioP1;P1;durP2;ratioP2;P2;SDS_P1;SDS_P2;PMS_P1;PMS_P2;Temp;Humidity;BMP_temperature;BMP_pressure;BME280_temperature;BME280_humidity;BME280_pressure;Samples;Min_cycle;Max_cycle;Signal;HPM_P1;HPM_P2
2023/08/17 00:01:35;;;;;;;4.45;2.53;;;;;;;;;;5152012;27;20633;-73
2023/08/17 00:04:02;;;;;;;2.97;2.22;;;;;;;;;;5153480;27;20043;-73
2023/08/17 00:06:28;;;;;;;4.25;2.65;;;;;;;;;;5152991;27;20490;-73
2023/08/17 00:08:55;;;;;;;5.15;2.65;;;;;;;;;;5153165;27;20057;-73
2023/08/17 00:11:22;;;;;;;3.50;2.38;;;;;;;;;;5153255;27;20131;-74
2023/08/17 00:13:49;;;;;;;3.30;2.53;;;;;;;;;;5153177;27;20046;-73
2023/08/17 00:16:17;;;;;;;5.18;2.70;;;;;;;;;;5152848;27;20095;-73
2023/08/17 00:18:44;;;;;;;4.75;2.40;;;;;;;;;;5152985;27;20046;-73
2023/08/17 00:21:10;;;;;;;3.75;2.45;;;;;;;;;;5152955;27;20053;-73
2023/08/17 00:23:37;;;;;;;3.65;2.58;;;;;;;;;;5152186;27;20103;-73
2023/08/17 00:26:03;;;;;;;2.95;2.28;;;;;;;;;;5152594;27;20494;-73
2023/08/17 00:28:30;;;;;;;4.45;2.40;;;;;;;;;;5152634;27;20452;-73
2023/08/17 00:30:57;;;;;;;3.03;2.30;;;;;;;;;;5152636;27;20047;-73
2023/08/17 00:33:23;;;;;;;4.10;2.60;;;;;;;;;;5152098;27;20058;-74
2023/08/17 00:35:50;;;;;;;3.60;2.53;;;;;;;;;;5152639;27;20043;-72
2023/08/17 00:38:17;;;;;;;5.55;2.45;;;;;;;;;;5152094;27;20479;-72
2023/08/17 00:40:43;;;;;;;6.07;2.55;;;;;;;;;;5152338;27;20095;-73
2023/08/17 00:43:10;;;;;;;3.38;2.55;;;;;;;;;;5152659;27;20046;-73
2023/08/17 00:45:37;;;;;;;4.10;2.40;;;;;;;;;;5152459;27;20078;-72
2023/08/17 00:48:07;;;;;;;4.93;2.40;;;;;;;;;;5152139;27;20047;-73
2023/08/17 00:50:35;;;;;;;;;;;;;;;;;;5152766;27;20051;-73
2023/08/17 00:53:02;;;;;;;3.63;2.35;;;;;;;;;;5151630;27;19998;-73
2023/08/17 00:55:29;;;;;;;3.17;2.17;;;;;;;;;;5152173;27;20425;-73
2023/08/17 00:57:57;;;;;;;5.55;2.80;;;;;;;;;;5152798;27;20068;-73
2023/08/17 01:00:28;;;;;;;4.68;2.40;;;;;;;;;;5151903;27;20042;-73
2023/08/17 01:02:55;;;;;;;3.08;2.38;;;;;;;;;;5151938;27;20047;-71
2023/08/17 01:05:23;;;;;;;3.08;2.10;;;;;;;;;;5151827;27;20160;-73
2023/08/17 01:07:52;;;;;;;3.88;2.60;;;;;;;;;;5151098;27;20051;-72
2023/08/17 01:10:19;;;;;;;3.35;2.35;;;;;;;;;;5150637;27;20053;-72
2023/08/17 01:13:09;;;;;;;4.15;2.40;;;;;;;;;;5151527;27;20042;-73
2023/08/17 01:15:39;;;;;;;3.20;2.20;;;;;;;;;;5151809;27;20554;-73
2023/08/17 01:18:22;;;;;;;3.28;2.25;;;;;;;;;;5150198;27;20043;-73
2023/08/17 01:20:50;;;;;;;3.45;2.10;;;;;;;;;;5151677;27;20043;-73
2023/08/17 01:23:16;;;;;;;4.10;2.28;;;;;;;;;;5151165;27;20055;-73
2023/08/17 01:25:43;;;;;;;2.65;2.03;;;;;;;;;;5151532;27;20042;-73
2023/08/17 01:28:10;;;;;;;3.95;2.50;;;;;;;;;;5150998;27;20489;-73
2023/08/17 01:30:49;;;;;;;3.63;2.60;;;;;;;;;;5151323;27;20568;-73
2023/08/17 01:33:24;;;;;;;3.03;1.98;;;;;;;;;;5150851;27;20050;-73
2023/08/17 01:35:56;;;;;;;3.63;2.45;;;;;;;;;;5151711;27;20047;-73
2023/08/17 01:38:25;;;;;;;3.22;2.05;;;;;;;;;;5150686;27;20051;-73
2023/08/17 01:40:53;;;;;;;4.25;2.47;;;;;;;;;;5151381;27;20115;-73
2023/08/17 01:43:20;;;;;;;3.53;2.35;;;;;;;;;;5150765;27;20070;-73
2023/08/17 01:45:47;;;;;;;4.53;2.58;;;;;;;;;;5151044;27;20043;-73
2023/08/17 01:48:14;;;;;;;3.80;2.47;;;;;;;;;;5150971;27;20057;-72
2023/08/17 01:50:41;;;;;;;2.50;2.03;;;;;;;;;;5151209;27;20575;-73
2023/08/17 01:53:09;;;;;;;2.95;2.25;;;;;;;;;;5150662;27;20042;-73
2023/08/17 01:55:39;;;;;;;5.70;2.20;;;;;;;;;;5150893;27;20566;-72
2023/08/17 01:58:05;;;;;;;3.23;2.37;;;;;;;;;;5151017;27;20058;-73
2023/08/17 02:00:32;;;;;;;5.03;2.50;;;;;;;;;;5150741;27;20050;-72
2023/08/17 02:02:59;;;;;;;3.83;2.70;;;;;;;;;;5149431;27;20045;-73
2023/08/17 02:05:28;;;;;;;4.03;2.30;;;;;;;;;;5150744;27;20050;-73
2023/08/17 02:07:57;;;;;;;2.83;2.22;;;;;;;;;;5148868;27;20095;-72
2023/08/17 02:10:24;;;;;;;3.63;2.45;;;;;;;;;;5150703;27;20049;-72
2023/08/17 02:12:51;;;;;;;3.63;2.38;;;;;;;;;;5149961;27;20065;-73
2023/08/17 02:15:27;;;;;;;3.20;2.35;;;;;;;;;;5150345;27;20525;-73
2023/08/17 02:17:54;;;;;;;3.35;2.38;;;;;;;;;;5150074;27;20506;-73
2023/08/17 02:20:20;;;;;;;3.20;2.58;;;;;;;;;;5150702;27;20054;-73
2023/08/17 02:22:47;;;;;;;4.57;2.83;;;;;;;;;;5149956;27;20414;-73
2023/08/17 02:25:14;;;;;;;3.13;2.45;;;;;;;;;;5150388;27;20047;-73
2023/08/17 02:27:40;;;;;;;3.30;2.75;;;;;;;;;;5150714;27;20049;-73
2023/08/17 02:30:07;;;;;;;3.17;2.20;;;;;;;;;;5150670;27;20107;-74
2023/08/17 02:32:34;;;;;;;5.35;2.45;;;;;;;;;;5150239;27;20046;-73
2023/08/17 02:35:01;;;;;;;4.07;2.30;;;;;;;;;;5150354;27;20100;-73
2023/08/17 02:37:28;;;;;;;4.90;2.58;;;;;;;;;;5149468;27;20038;-73
2023/08/17 02:39:55;;;;;;;4.13;2.40;;;;;;;;;;5149004;27;20463;-73
2023/08/17 02:42:21;;;;;;;4.10;2.53;;;;;;;;;;5150029;27;20053;-73
2023/08/17 02:44:48;;;;;;;3.47;2.45;;;;;;;;;;5150565;27;20046;-73
2023/08/17 02:47:15;;;;;;;4.03;2.63;;;;;;;;;;5150099;27;20477;-73
2023/08/17 02:49:41;;;;;;;5.40;2.53;;;;;;;;;;5150124;27;20474;-73
2023/08/17 02:52:08;;;;;;;2.83;2.20;;;;;;;;;;5150195;27;20053;-73
2023/08/17 02:54:35;;;;;;;5.63;2.30;;;;;;;;;;5149689;27;20144;-73
2023/08/17 02:57:04;;;;;;;3.72;2.42;;;;;;;;;;5150090;27;20149;-74
2023/08/17 02:59:31;;;;;;;3.72;2.63;;;;;;;;;;5150263;27;20072;-73
2023/08/17 03:01:57;;;;;;;3.33;2.50;;;;;;;;;;5150163;27;20068;-73
2023/08/17 03:04:24;;;;;;;4.10;2.63;;;;;;;;;;5149775;27;20551;-73
2023/08/17 03:06:51;;;;;;;3.78;2.58;;;;;;;;;;5148711;27;20047;-74
2023/08/17 03:09:17;;;;;;;4.75;2.53;;;;;;;;;;5148128;27;20070;-74
2023/08/17 03:11:44;;;;;;;4.18;2.72;;;;;;;;;;5150054;27;20050;-74
2023/08/17 03:14:11;;;;;;;3.90;2.35;;;;;;;;;;5149501;27;20042;-73
2023/08/17 03:16:37;;;;;;;5.70;2.60;;;;;;;;;;5149825;27;20047;-73
2023/08/17 03:19:07;;;;;;;3.72;2.40;;;;;;;;;;5149753;27;20042;-73
2023/08/17 03:21:34;;;;;;;3.33;2.53;;;;;;;;;;5150008;27;20058;-73
2023/08/17 03:24:01;;;;;;;4.55;2.50;;;;;;;;;;5152471;27;20494;-74
2023/08/17 03:26:27;;;;;;;4.00;2.50;;;;;;;;;;5154023;27;20043;-73
2023/08/17 03:28:54;;;;;;;3.53;2.45;;;;;;;;;;5153754;27;20600;-73
2023/08/17 03:31:21;;;;;;;3.47;2.67;;;;;;;;;;5153626;27;20067;-73
2023/08/17 03:33:48;;;;;;;3.25;2.38;;;;;;;;;;5153845;27;20042;-73
2023/08/17 03:36:15;;;;;;;6.80;2.38;;;;;;;;;;5153568;27;20042;-73
2023/08/17 03:38:42;;;;;;;3.92;2.47;;;;;;;;;;5153297;27;20050;-73
2023/08/17 03:41:09;;;;;;;4.05;2.38;;;;;;;;;;5154106;27;20066;-73
2023/08/17 03:43:35;;;;;;;3.60;2.80;;;;;;;;;;5153047;27;20140;-74
2023/08/17 03:46:07;;;;;;;5.35;2.88;;;;;;;;;;5153313;27;20043;-74
2023/08/17 03:48:33;;;;;;;4.55;2.80;;;;;;;;;;5153320;27;20050;-73
2023/08/17 03:51:02;;;;;;;4.25;3.00;;;;;;;;;;5153575;27;20062;-74
2023/08/17 03:53:29;;;;;;;3.40;2.92;;;;;;;;;;5152882;27;20644;-73
2023/08/17 03:55:56;;;;;;;7.30;3.22;;;;;;;;;;5153077;27;20545;-73
2023/08/17 03:58:22;;;;;;;5.15;2.63;;;;;;;;;;5153175;27;20394;-73
2023/08/17 04:00:53;;;;;;;6.43;3.00;;;;;;;;;;5153377;27;20054;-73
2023/08/17 04:03:19;;;;;;;6.35;2.85;;;;;;;;;;5153368;27;20047;-73
2023/08/17 04:05:46;;;;;;;3.72;2.78;;;;;;;;;;5152937;27;20042;-72
2023/08/17 04:08:13;;;;;;;3.75;2.75;;;;;;;;;;5152442;27;20118;-73
2023/08/17 04:10:39;;;;;;;3.88;3.03;;;;;;;;;;5153160;27;20042;-73
2023/08/17 04:13:09;;;;;;;4.80;2.67;;;;;;;;;;5152943;27;20043;-73
2023/08/17 04:15:38;;;;;;;4.50;3.40;;;;;;;;;;5152758;27;20043;-73
2023/08/17 04:18:05;;;;;;;8.38;3.33;;;;;;;;;;5153045;27;20042;-73
2023/08/17 04:20:34;;;;;;;4.47;3.08;;;;;;;;;;5152923;27;20039;-73
2023/08/17 04:23:00;;;;;;;5.63;2.90;;;;;;;;;;5152541;27;20122;-73
2023/08/17 04:25:27;;;;;;;6.70;3.38;;;;;;;;;;5152416;27;20284;-73
2023/08/17 04:27:54;;;;;;;4.03;3.08;;;;;;;;;;5152812;27;20061;-73
2023/08/17 04:30:20;;;;;;;4.60;3.15;;;;;;;;;;5152555;27;20042;-73
2023/08/17 04:32:52;;;;;;;5.35;3.17;;;;;;;;;;5152632;27;20043;-73
2023/08/17 04:35:20;;;;;;;5.32;3.20;;;;;;;;;;5151483;27;20126;-73
2023/08/17 04:37:47;;;;;;;5.03;2.90;;;;;;;;;;5151141;27;20121;-73
2023/08/17 04:40:14;;;;;;;3.63;2.83;;;;;;;;;;5152293;27;20095;-73
2023/08/17 04:42:41;;;;;;;5.40;2.90;;;;;;;;;;5152621;27;20049;-73
2023/08/17 04:45:11;;;;;;;5.80;3.30;;;;;;;;;;5152137;27;20049;-73
2023/08/17 04:47:41;;;;;;;4.67;3.30;;;;;;;;;;5151069;27;20043;-73
2023/08/17 04:50:15;;;;;;;5.35;3.08;;;;;;;;;;5152206;27;20043;-73
2023/08/17 04:52:43;;;;;;;3.95;2.83;;;;;;;;;;5152339;27;20046;-73
2023/08/17 04:55:11;;;;;;;4.30;3.20;;;;;;;;;;5152032;27;20099;-73
2023/08/17 04:57:38;;;;;;;5.28;3.40;;;;;;;;;;5152176;27;20606;-72
2023/08/17 05:00:09;;;;;;;4.88;3.20;;;;;;;;;;5151964;27;20079;-73
2023/08/17 05:02:37;;;;;;;3.28;2.45;;;;;;;;;;5151892;27;20082;-73
2023/08/17 05:05:08;;;;;;;3.80;3.00;;;;;;;;;;5151848;27;20071;-73
2023/08/17 05:07:35;;;;;;;4.80;3.03;;;;;;;;;;5151830;27;20091;-73
2023/08/17 05:10:03;;;;;;;4.78;3.00;;;;;;;;;;5152103;27;20148;-73
2023/08/17 05:12:29;;;;;;;4.07;2.70;;;;;;;;;;5151860;27;20081;-73
2023/08/17 05:14:56;;;;;;;4.72;2.78;;;;;;;;;;5151812;27;20046;-73
2023/08/17 05:17:23;;;;;;;3.70;2.47;;;;;;;;;;5151402;27;20419;-73
2023/08/17 05:19:51;;;;;;;4.95;3.10;;;;;;;;;;5151607;27;20043;-73
2023/08/17 05:22:18;;;;;;;4.20;3.03;;;;;;;;;;5151538;27;20043;-73
2023/08/17 05:24:44;;;;;;;3.20;2.70;;;;;;;;;;5151448;27;20438;-73
2023/08/17 05:27:11;;;;;;;4.05;3.00;;;;;;;;;;5150521;27;20050;-73
2023/08/17 05:29:38;;;;;;;4.95;2.97;;;;;;;;;;5151160;27;20490;-73
2023/08/17 05:32:05;;;;;;;5.93;2.97;;;;;;;;;;5151333;27;20043;-73
2023/08/17 05:34:32;;;;;;;3.50;2.58;;;;;;;;;;5151270;27;20166;-73
2023/08/17 05:36:59;;;;;;;3.65;3.10;;;;;;;;;;5150175;27;20053;-73
2023/08/17 05:39:26;;;;;;;4.75;2.97;;;;;;;;;;5150772;27;20046;-73
2023/08/17 05:41:52;;;;;;;3.50;2.53;;;;;;;;;;5151549;27;20039;-73
2023/08/17 05:44:19;;;;;;;4.03;2.70;;;;;;;;;;5151449;27;20042;-73
2023/08/17 05:46:45;;;;;;;5.75;2.80;;;;;;;;;;5151099;27;20061;-72
2023/08/17 05:49:12;;;;;;;4.38;2.97;;;;;;;;;;5151134;27;20522;-72
2023/08/17 05:51:39;;;;;;;4.38;3.00;;;;;;;;;;5151102;27;20619;-73
2023/08/17 05:54:07;;;;;;;7.07;3.50;;;;;;;;;;5150513;27;20604;-73
2023/08/17 05:56:33;;;;;;;5.57;2.97;;;;;;;;;;5150831;27;20130;-73
2023/08/17 05:59:00;;;;;;;4.70;2.92;;;;;;;;;;5151031;27;20045;-73
2023/08/17 06:01:27;;;;;;;3.95;2.85;;;;;;;;;;5150834;27;20513;-73
2023/08/17 06:03:53;;;;;;;6.25;2.90;;;;;;;;;;5151305;27;20050;-73
2023/08/17 06:06:20;;;;;;;4.90;2.55;;;;;;;;;;5150563;27;20057;-73
2023/08/17 06:08:47;;;;;;;5.32;2.45;;;;;;;;;;5150578;27;20130;-73
2023/08/17 06:11:14;;;;;;;5.82;2.50;;;;;;;;;;5150541;27;20078;-73
2023/08/17 06:13:40;;;;;;;5.18;2.20;;;;;;;;;;5150965;27;20357;-73
2023/08/17 06:16:07;;;;;;;3.85;2.03;;;;;;;;;;5150267;27;20735;-72
2023/08/17 06:18:34;;;;;;;5.80;2.42;;;;;;;;;;5150469;27;20050;-73
2023/08/17 06:21:00;;;;;;;4.13;2.00;;;;;;;;;;5150723;27;20069;-73
2023/08/17 06:23:27;;;;;;;3.40;2.00;;;;;;;;;;5150197;27;20508;-73
2023/08/17 06:25:58;;;;;;;5.75;2.20;;;;;;;;;;5149843;27;20050;-73
2023/08/17 06:28:26;;;;;;;4.15;2.30;;;;;;;;;;5150364;27;20043;-73
2023/08/17 06:30:53;;;;;;;2.95;2.10;;;;;;;;;;5150134;27;20051;-74
2023/08/17 06:33:21;;;;;;;4.38;2.15;;;;;;;;;;5150265;27;20079;-73
2023/08/17 06:35:51;;;;;;;3.50;1.85;;;;;;;;;;5150457;27;20046;-73
2023/08/17 06:38:18;;;;;;;4.68;1.98;;;;;;;;;;5149778;27;20502;-73
2023/08/17 06:40:47;;;;;;;3.42;2.05;;;;;;;;;;5150368;27;20139;-73
2023/08/17 06:43:17;;;;;;;4.07;2.10;;;;;;;;;;5150270;27;20137;-73
2023/08/17 06:45:47;;;;;;;3.22;2.10;;;;;;;;;;5150451;27;20083;-73
2023/08/17 06:48:13;;;;;;;5.88;2.25;;;;;;;;;;5149990;27;20046;-73
2023/08/17 06:50:41;;;;;;;4.45;2.10;;;;;;;;;;5150089;27;20141;-73
2023/08/17 06:53:07;;;;;;;4.15;1.92;;;;;;;;;;5150052;27;20048;-73
2023/08/17 06:55:34;;;;;;;3.00;2.15;;;;;;;;;;5149781;27;20043;-72
2023/08/17 06:58:01;;;;;;;4.28;2.60;;;;;;;;;;5149796;27;20051;-73
2023/08/17 07:00:28;;;;;;;4.47;3.00;;;;;;;;;;5149882;27;20510;-72
2023/08/17 07:02:54;;;;;;;3.97;2.95;;;;;;;;;;5149936;27;20484;-73
2023/08/17 07:05:26;;;;;;;3.00;2.22;;;;;;;;;;5149229;27;20170;-73
2023/08/17 07:07:52;;;;;;;3.28;2.25;;;;;;;;;;5149571;27;20049;-73
2023/08/17 07:10:19;;;;;;;3.55;2.35;;;;;;;;;;5149708;27;20043;-73
2023/08/17 07:12:48;;;;;;;5.82;2.92;;;;;;;;;;5150077;27;20043;-73
2023/08/17 07:15:15;;;;;;;4.82;2.15;;;;;;;;;;5149957;27;20057;-73
2023/08/17 07:17:43;;;;;;;3.42;2.28;;;;;;;;;;5150003;27;20046;-72
2023/08/17 07:20:11;;;;;;;3.65;2.30;;;;;;;;;;5149737;27;20091;-73
2023/08/17 07:22:46;;;;;;;4.93;2.80;;;;;;;;;;5149535;27;20043;-73
2023/08/17 07:25:13;;;;;;;3.88;2.25;;;;;;;;;;5149786;27;20135;-74
2023/08/17 07:27:40;;;;;;;3.10;2.33;;;;;;;;;;5149813;27;20103;-73
2023/08/17 07:30:07;;;;;;;3.42;2.40;;;;;;;;;;5150034;27;20119;-73
2023/08/17 07:32:34;;;;;;;4.85;2.78;;;;;;;;;;5149695;27;20054;-73
2023/08/17 07:35:01;;;;;;;3.17;2.10;;;;;;;;;;5150171;27;20111;-73
2023/08/17 07:37:32;;;;;;;3.33;2.58;;;;;;;;;;5147794;27;20047;-73
2023/08/17 07:39:59;;;;;;;3.85;2.70;;;;;;;;;;5149943;27;20050;-73
2023/08/17 07:42:26;;;;;;;5.72;3.00;;;;;;;;;;5149638;27;20049;-73
2023/08/17 07:44:53;;;;;;;3.67;2.60;;;;;;;;;;5149702;27;20043;-73
2023/08/17 07:47:20;;;;;;;5.65;2.63;;;;;;;;;;5149592;27;20053;-73
2023/08/17 07:49:46;;;;;;;2.92;2.08;;;;;;;;;;5149957;27;20076;-73
2023/08/17 07:52:15;;;;;;;4.47;2.63;;;;;;;;;;5149169;27;20051;-73
2023/08/17 07:54:42;;;;;;;4.10;2.40;;;;;;;;;;5150005;27;20046;-73
2023/08/17 07:57:09;;;;;;;3.63;2.67;;;;;;;;;;5149698;27;20143;-73
2023/08/17 07:59:36;;;;;;;3.88;2.70;;;;;;;;;;5149581;27;20043;-72
2023/08/17 08:02:03;;;;;;;4.90;2.35;;;;;;;;;;5149407;27;20046;-73
2023/08/17 08:04:29;;;;;;;3.45;2.25;;;;;;;;;;5149604;27;20047;-73
2023/08/17 08:06:58;;;;;;;3.60;2.40;;;;;;;;;;5147882;27;20438;-73
2023/08/17 08:09:25;;;;;;;4.05;2.60;;;;;;;;;;5149583;27;20047;-73
2023/08/17 08:11:52;;;;;;;4.18;2.72;;;;;;;;;;5153077;27;20367;-73
2023/08/17 08:14:18;;;;;;;3.75;2.75;;;;;;;;;;5153084;27;20047;-73
2023/08/17 08:16:47;;;;;;;6.45;2.83;;;;;;;;;;5152522;27;20058;-73
2023/08/17 08:19:14;;;;;;;4.45;2.22;;;;;;;;;;5153006;27;20070;-72
2023/08/17 08:21:40;;;;;;;5.35;2.88;;;;;;;;;;5152893;27;20043;-73
2023/08/17 08:24:07;;;;;;;4.15;2.70;;;;;;;;;;5152702;27;20134;-73
2023/08/17 08:26:43;;;;;;;3.60;2.53;;;;;;;;;;5152867;27;20039;-73
2023/08/17 08:29:10;;;;;;;3.90;2.40;;;;;;;;;;5153102;27;20047;-73
2023/08/17 08:31:37;;;;;;;5.70;2.72;;;;;;;;;;5152286;27;20047;-73
2023/08/17 08:34:03;;;;;;;6.13;3.10;;;;;;;;;;5153026;27;20050;-73
2023/08/17 08:36:30;;;;;;;2.95;2.40;;;;;;;;;;5152348;27;20050;-73
2023/08/17 08:38:56;;;;;;;5.05;2.70;;;;;;;;;;5152362;27;20054;-73
2023/08/17 08:41:26;;;;;;;5.63;2.70;;;;;;;;;;5152546;27;20058;-73
2023/08/17 08:43:53;;;;;;;3.53;2.70;;;;;;;;;;5152911;27;20050;-73
2023/08/17 08:46:20;;;;;;;3.90;2.65;;;;;;;;;;5152395;27;20047;-73
2023/08/17 08:48:51;;;;;;;4.30;2.60;;;;;;;;;;5152376;27;20526;-73
2023/08/17 08:51:25;;;;;;;4.70;2.47;;;;;;;;;;5152212;27;20054;-73
2023/08/17 08:54:01;;;;;;;4.57;2.78;;;;;;;;;;5152132;27;20047;-73
2023/08/17 08:56:31;;;;;;;3.58;2.60;;;;;;;;;;5150783;27;20517;-73
2023/08/17 08:59:01;;;;;;;5.30;2.65;;;;;;;;;;5152242;27;20043;-73
2023/08/17 09:01:30;;;;;;;3.58;2.50;;;;;;;;;;5152437;27;20039;-73
2023/08/17 09:04:00;;;;;;;3.65;2.50;;;;;;;;;;5152602;27;20078;-73
2023/08/17 09:06:27;;;;;;;4.27;2.47;;;;;;;;;;5152062;27;20047;-73
2023/08/17 09:08:54;;;;;;;4.35;2.53;;;;;;;;;;5151302;27;20070;-74
2023/08/17 09:11:21;;;;;;;3.53;2.42;;;;;;;;;;5152047;27;20353;-73
2023/08/17 09:13:50;;;;;;;4.10;2.60;;;;;;;;;;5152406;27;20073;-73
2023/08/17 09:16:19;;;;;;;3.00;2.22;;;;;;;;;;5152178;27;20042;-73
2023/08/17 09:18:48;;;;;;;3.30;2.17;;;;;;;;;;5151936;27;20043;-73
2023/08/17 09:21:23;;;;;;;4.07;2.33;;;;;;;;;;5151613;27;20051;-73
2023/08/17 09:23:57;;;;;;;2.80;2.13;;;;;;;;;;5151493;27;20047;-74
2023/08/17 09:26:32;;;;;;;4.68;2.33;;;;;;;;;;5151691;27;20471;-73
2023/08/17 09:29:00;;;;;;;4.10;2.10;;;;;;;;;;5151775;27;20043;-73
2023/08/17 09:31:30;;;;;;;2.70;1.90;;;;;;;;;;5151862;27;20058;-75
2023/08/17 09:33:56;;;;;;;2.53;1.75;;;;;;;;;;5152270;27;20043;-75
2023/08/17 09:36:27;;;;;;;2.88;1.77;;;;;;;;;;5151697;27;20440;-74
2023/08/17 09:38:56;;;;;;;3.08;2.03;;;;;;;;;;5151235;27;20045;-74
2023/08/17 09:41:23;;;;;;;2.58;2.08;;;;;;;;;;5151710;27;20047;-74
2023/08/17 09:43:57;;;;;;;3.25;1.90;;;;;;;;;;5151341;27;20078;-73
2023/08/17 09:46:25;;;;;;;3.38;2.10;;;;;;;;;;5151255;27;20046;-73
2023/08/17 09:48:53;;;;;;;4.85;1.95;;;;;;;;;;5151353;27;20051;-73
2023/08/17 09:51:21;;;;;;;3.03;1.83;;;;;;;;;;5151216;27;20058;-74
2023/08/17 09:53:54;;;;;;;3.45;1.85;;;;;;;;;;5150975;27;20058;-74
2023/08/17 09:56:27;;;;;;;4.43;2.00;;;;;;;;;;5151140;27;20046;-73
2023/08/17 09:58:54;;;;;;;2.88;1.92;;;;;;;;;;5150938;27;20042;-74
2023/08/17 10:01:23;;;;;;;2.22;1.90;;;;;;;;;;5150967;27;20064;-73
2023/08/17 10:03:52;;;;;;;3.78;1.80;;;;;;;;;;5151123;27;20042;-74
2023/08/17 10:06:24;;;;;;;2.08;1.70;;;;;;;;;;5151083;27;20074;-73
2023/08/17 10:08:59;;;;;;;3.05;1.83;;;;;;;;;;5150272;27;20119;-73
2023/08/17 10:11:30;;;;;;;2.88;1.80;;;;;;;;;;5150978;27;20126;-73
2023/08/17 10:14:05;;;;;;;4.40;1.70;;;;;;;;;;5151039;27;20063;-73
2023/08/17 10:16:44;;;;;;;3.08;1.73;;;;;;;;;;5150914;27;20669;-73
2023/08/17 10:19:22;;;;;;;2.55;1.67;;;;;;;;;;5150246;27;20095;-73
2023/08/17 10:22:20;;;;;;;2.28;1.73;;;;;;;;;;5150478;27;20053;-73
2023/08/17 10:24:47;;;;;;;1.90;1.42;;;;;;;;;;5133815;27;20074;-74
2023/08/17 10:27:15;;;;;;;7.30;2.80;;;;;;;;;;5150605;27;20042;-73
2023/08/17 10:29:43;;;;;;;2.65;1.60;;;;;;;;;;5150613;27;20127;-74
2023/08/17 10:32:11;;;;;;;2.53;1.83;;;;;;;;;;5149553;27;20054;-73
2023/08/17 10:34:42;;;;;;;3.90;1.42;;;;;;;;;;5150480;27;20042;-73
2023/08/17 10:37:09;;;;;;;2.33;1.70;;;;;;;;;;5150383;27;20047;-73
2023/08/17 10:39:39;;;;;;;4.05;1.70;;;;;;;;;;5150390;27;20047;-73
2023/08/17 10:42:06;;;;;;;3.15;1.85;;;;;;;;;;5149079;27;20050;-73
2023/08/17 10:44:46;;;;;;;2.00;1.50;;;;;;;;;;5150286;27;20518;-73
2023/08/17 10:47:22;;;;;;;6.25;1.95;;;;;;;;;;5150825;27;20046;-73
2023/08/17 10:50:15;;;;;;;4.85;1.80;;;;;;;;;;5150412;27;20042;-73
2023/08/17 10:52:43;;;;;;;3.15;1.80;;;;;;;;;;5138918;27;20043;-73
2023/08/17 10:55:14;;;;;;;3.20;1.70;;;;;;;;;;5150091;27;20104;-73
2023/08/17 10:57:41;;;;;;;3.33;1.73;;;;;;;;;;5150077;27;20042;-74
2023/08/17 11:00:27;;;;;;;3.00;1.77;;;;;;;;;;5150600;27;20046;-73
2023/08/17 11:03:07;;;;;;;1.60;1.45;;;;;;;;;;5150404;27;20039;-73
2023/08/17 11:05:49;;;;;;;2.50;1.70;;;;;;;;;;5150061;27;20046;-73
2023/08/17 11:08:21;;;;;;;3.00;1.85;;;;;;;;;;5149885;27;20045;-73
2023/08/17 11:10:58;;;;;;;2.88;1.70;;;;;;;;;;5150045;27;20051;-73
2023/08/17 11:13:30;;;;;;;2.10;1.63;;;;;;;;;;5149892;27;20181;-73
2023/08/17 11:15:58;;;;;;;2.88;1.58;;;;;;;;;;5150038;27;20095;-73
2023/08/17 11:18:33;;;;;;;3.53;2.10;;;;;;;;;;5149875;27;20050;-73
2023/08/17 11:21:05;;;;;;;3.03;1.60;;;;;;;;;;5149836;27;20406;-73
2023/08/17 11:23:34;;;;;;;2.70;1.80;;;;;;;;;;5149493;27;20531;-73
2023/08/17 11:26:04;;;;;;;3.80;1.55;;;;;;;;;;5150065;27;20091;-73
2023/08/17 11:28:41;;;;;;;3.47;1.60;;;;;;;;;;5149545;27;20093;-74
2023/08/17 11:31:10;;;;;;;3.10;1.88;;;;;;;;;;5149665;27;20133;-73
2023/08/17 11:33:38;;;;;;;2.60;1.60;;;;;;;;;;5149447;27;20513;-73
2023/08/17 11:36:07;;;;;;;5.00;1.73;;;;;;;;;;5150209;27;20042;-73
2023/08/17 11:38:36;;;;;;;7.57;2.20;;;;;;;;;;5149106;27;20053;-74
2023/08/17 11:41:04;;;;;;;4.20;1.67;;;;;;;;;;5149909;27;20047;-73
2023/08/17 11:43:34;;;;;;;2.47;2.00;;;;;;;;;;5149935;27;20537;-73
2023/08/17 11:46:05;;;;;;;3.05;1.75;;;;;;;;;;5154132;27;20050;-73
2023/08/17 11:48:36;;;;;;;3.58;2.20;;;;;;;;;;5153301;27;20043;-73
2023/08/17 11:51:03;;;;;;;2.65;1.83;;;;;;;;;;5154025;27;20051;-74
2023/08/17 11:53:35;;;;;;;3.47;2.00;;;;;;;;;;5153009;27;20103;-74
2023/08/17 11:56:04;;;;;;;3.72;1.80;;;;;;;;;;5153818;27;20082;-73
2023/08/17 11:58:56;;;;;;;4.55;1.83;;;;;;;;;;5153623;27;20334;-74
2023/08/17 12:01:23;;;;;;;2.55;1.50;;;;;;;;;;5153893;27;20047;-74
2023/08/17 12:03:50;;;;;;;3.42;1.80;;;;;;;;;;5153105;27;20058;-73
2023/08/17 12:06:17;;;;;;;3.47;1.80;;;;;;;;;;5153540;27;20103;-73
2023/08/17 12:08:47;;;;;;;2.47;1.70;;;;;;;;;;5152977;27;20047;-73
2023/08/17 12:11:18;;;;;;;3.03;1.60;;;;;;;;;;5153309;27;20120;-73
2023/08/17 12:13:51;;;;;;;6.15;1.88;;;;;;;;;;5153036;27;20611;-73
2023/08/17 12:16:18;;;;;;;2.50;1.67;;;;;;;;;;5153462;27;20111;-73
2023/08/17 12:18:49;;;;;;;7.03;1.80;;;;;;;;;;5153563;27;20122;-74
2023/08/17 12:21:16;;;;;;;4.13;1.60;;;;;;;;;;5151564;27;20482;-73
2023/08/17 12:23:43;;;;;;;4.57;1.70;;;;;;;;;;5152536;27;20122;-73
2023/08/17 12:26:10;;;;;;;2.63;1.75;;;;;;;;;;5152783;27;20050;-73
2023/08/17 12:28:39;;;;;;;3.67;1.73;;;;;;;;;;5152912;27;20049;-74
2023/08/17 12:31:06;;;;;;;5.57;1.83;;;;;;;;;;5152925;27;20158;-73
2023/08/17 12:33:36;;;;;;;2.65;1.60;;;;;;;;;;5152387;27;20050;-73
2023/08/17 12:36:04;;;;;;;3.92;1.55;;;;;;;;;;5153418;27;20069;-73
2023/08/17 12:38:31;;;;;;;2.40;1.40;;;;;;;;;;5150811;27;20046;-74
2023/08/17 12:40:57;;;;;;;2.25;1.63;;;;;;;;;;5152737;27;20039;-74
2023/08/17 12:43:24;;;;;;;2.17;1.30;;;;;;;;;;5152613;27;20054;-73
2023/08/17 12:45:51;;;;;;;3.65;1.67;;;;;;;;;;5152247;27;20039;-73
2023/08/17 12:48:18;;;;;;;3.17;1.55;;;;;;;;;;5152817;27;20043;-73
2023/08/17 12:50:44;;;;;;;2.55;1.55;;;;;;;;;;5152485;27;20042;-74
2023/08/17 12:53:11;;;;;;;3.55;1.50;;;;;;;;;;5152111;27;20053;-73
2023/08/17 12:55:37;;;;;;;2.30;1.50;;;;;;;;;;5151746;27;20049;-74
2023/08/17 12:58:05;;;;;;;3.17;1.42;;;;;;;;;;5152644;27;20039;-73
2023/08/17 13:00:33;;;;;;;3.47;1.45;;;;;;;;;;5150489;27;20049;-73
2023/08/17 13:02:59;;;;;;;4.22;1.70;;;;;;;;;;5152431;27;20039;-73
2023/08/17 13:05:26;;;;;;;1.92;1.17;;;;;;;;;;5151938;27;20498;-73
2023/08/17 13:07:53;;;;;;;3.28;1.70;;;;;;;;;;5150670;27;20045;-74
2023/08/17 13:10:20;;;;;;;3.75;1.42;;;;;;;;;;5151574;27;20050;-74
2023/08/17 13:12:47;;;;;;;2.60;1.50;;;;;;;;;;5152307;27;20047;-73
2023/08/17 13:15:14;;;;;;;2.38;1.50;;;;;;;;;;5151522;27;20042;-73
2023/08/17 13:17:41;;;;;;;2.90;1.38;;;;;;;;;;5152027;27;20038;-73
2023/08/17 13:20:09;;;;;;;1.83;1.40;;;;;;;;;;5151508;27;20049;-74
2023/08/17 13:22:36;;;;;;;2.65;1.40;;;;;;;;;;5151435;27;20510;-73
2023/08/17 13:25:03;;;;;;;2.25;1.30;;;;;;;;;;5151553;27;20043;-73
2023/08/17 13:27:30;;;;;;;2.50;1.58;;;;;;;;;;5151942;27;20119;-73
2023/08/17 13:29:58;;;;;;;2.40;1.55;;;;;;;;;;5151675;27;20042;-73
2023/08/17 13:32:25;;;;;;;2.92;1.30;;;;;;;;;;5151671;27;20450;-73
2023/08/17 13:34:53;;;;;;;1.65;1.15;;;;;;;;;;5151239;27;20129;-73
2023/08/17 13:37:21;;;;;;;2.92;1.30;;;;;;;;;;5151181;27;20077;-73
2023/08/17 13:39:48;;;;;;;3.25;1.50;;;;;;;;;;5151356;27;20051;-73
2023/08/17 13:42:14;;;;;;;2.25;1.58;;;;;;;;;;5151697;27;20045;-73
2023/08/17 13:44:41;;;;;;;1.63;1.40;;;;;;;;;;5151304;27;20134;-73
2023/08/17 13:47:11;;;;;;;2.40;1.50;;;;;;;;;;5151423;27;20092;-73
2023/08/17 13:49:38;;;;;;;;;;;;;;;;;;5151369;27;20042;-73
2023/08/17 13:52:05;;;;;;;3.42;1.48;;;;;;;;;;5150003;27;19925;-73
2023/08/17 13:54:32;;;;;;;5.15;1.50;;;;;;;;;;5151036;27;20071;-73
2023/08/17 13:56:58;;;;;;;2.63;1.50;;;;;;;;;;5151254;27;20042;-73
2023/08/17 13:59:25;;;;;;;1.80;1.40;;;;;;;;;;5151024;27;20047;-73
2023/08/17 14:01:52;;;;;;;5.53;1.58;;;;;;;;;;5150977;27;20046;-73
2023/08/17 14:04:18;;;;;;;2.92;1.30;;;;;;;;;;5149921;27;20049;-73
2023/08/17 14:06:45;;;;;;;2.22;1.40;;;;;;;;;;5151208;27;20057;-73
2023/08/17 14:09:12;;;;;;;2.83;1.30;;;;;;;;;;5150663;27;20081;-73
2023/08/17 14:11:39;;;;;;;2.38;1.42;;;;;;;;;;5150669;27;20039;-73
2023/08/17 14:14:05;;;;;;;2.33;1.40;;;;;;;;;;5150904;27;20134;-73
2023/08/17 14:16:36;;;;;;;2.63;1.45;;;;;;;;;;5150710;27;20085;-73
2023/08/17 14:19:02;;;;;;;2.00;1.48;;;;;;;;;;5150769;27;20075;-73
2023/08/17 14:21:29;;;;;;;1.95;1.30;;;;;;;;;;5150289;27;20047;-73
2023/08/17 14:23:56;;;;;;;2.20;1.52;;;;;;;;;;5150679;27;20046;-73
2023/08/17 14:26:22;;;;;;;2.85;1.80;;;;;;;;;;5150467;27;20054;-73
2023/08/17 14:28:49;;;;;;;2.47;1.55;;;;;;;;;;5150503;27;20042;-73
2023/08/17 14:31:18;;;;;;;3.38;1.50;;;;;;;;;;5150083;27;20046;-73
2023/08/17 14:33:49;;;;;;;3.28;1.60;;;;;;;;;;5150351;27;20079;-73
2023/08/17 14:36:16;;;;;;;2.22;1.48;;;;;;;;;;5150260;27;20504;-74
2023/08/17 14:38:46;;;;;;;3.63;1.60;;;;;;;;;;5150221;27;20047;-74
2023/08/17 14:41:13;;;;;;;2.10;1.50;;;;;;;;;;5148846;27;20042;-73
2023/08/17 14:43:40;;;;;;;1.60;1.27;;;;;;;;;;5150540;27;20054;-73
2023/08/17 14:46:08;;;;;;;3.90;1.83;;;;;;;;;;5149920;27;20069;-73
2023/08/17 14:48:40;;;;;;;2.80;1.73;;;;;;;;;;5150152;27;20583;-73
2023/08/17 14:51:10;;;;;;;2.13;1.52;;;;;;;;;;5149543;27;20046;-73